createdAt,value
2022-09-18T00:01:18.203Z,13.50
2022-09-18T00:03:46.835Z,13.50
2022-09-18T00:06:18.182Z,13.50
2022-09-18T00:08:46.596Z,13.50
2022-09-18T00:11:17.872Z,13.50
2022-09-18T00:13:47.438Z,13.50
2022-09-18T00:16:17.554Z,13.40
2022-09-18T00:18:45.970Z,13.50
2022-09-18T00:21:16.229Z,13.50
2022-09-18T00:23:44.751Z,13.40
2022-09-18T00:26:14.142Z,13.40
2022-09-18T00:28:41.980Z,13.40
2022-09-18T00:31:13.970Z,13.40
2022-09-18T00:33:42.114Z,13.40
2022-09-18T00:36:11.857Z,13.40
2022-09-18T00:38:39.753Z,13.40
2022-09-18T00:41:10.562Z,13.40
2022-09-18T00:43:39.154Z,13.40
2022-09-18T00:46:09.406Z,13.40
2022-09-18T00:48:46.986Z,13.30
2022-09-18T00:51:17.838Z,13.30
2022-09-18T00:53:51.190Z,13.30
2022-09-18T00:56:19.236Z,13.30
2022-09-18T00:58:47.678Z,13.30
2022-09-18T01:01:15.576Z,13.30
2022-09-18T01:03:45.050Z,13.30
2022-09-18T01:06:17.381Z,13.30
2022-09-18T01:08:56.371Z,13.30
2022-09-18T01:11:37.445Z,13.30
2022-09-18T01:14:24.610Z,13.30
2022-09-18T01:16:59.252Z,13.20
2022-09-18T01:19:54.863Z,13.30
2022-09-18T01:22:33.037Z,13.30
2022-09-18T01:25:15.060Z,13.20
2022-09-18T01:27:58.608Z,13.30
2022-09-18T01:30:26.550Z,13.20
2022-09-18T01:33:02.361Z,13.20
2022-09-18T01:35:41.605Z,13.20
2022-09-18T01:38:14.367Z,13.20
2022-09-18T01:40:47.145Z,13.20
2022-09-18T01:43:18.935Z,13.20
2022-09-18T01:45:50.716Z,13.20
2022-09-18T01:48:25.700Z,13.20
2022-09-18T01:50:56.313Z,13.20
2022-09-18T01:53:28.739Z,13.10
2022-09-18T01:56:02.342Z,13.10
2022-09-18T01:58:35.165Z,13.10
2022-09-18T02:01:09.106Z,13.10
2022-09-18T02:03:42.166Z,13.20
2022-09-18T02:06:14.526Z,13.10
2022-09-18T02:08:45.445Z,13.10
2022-09-18T02:11:14.908Z,13.10
2022-09-18T02:13:49.650Z,13.20
2022-09-18T02:16:24.135Z,13.10
2022-09-18T02:18:56.118Z,13.10
2022-09-18T02:21:27.485Z,13.10
2022-09-18T02:23:58.800Z,13.10
2022-09-18T02:26:27.611Z,13.10
2022-09-18T02:28:58.418Z,13.10
2022-09-18T02:31:26.813Z,13.10
2022-09-18T02:33:54.816Z,13.10
2022-09-18T02:36:45.661Z,13.10
2022-09-18T02:39:32.921Z,13.10
2022-09-18T02:42:11.670Z,13.10
2022-09-18T02:44:48.621Z,13.10
2022-09-18T02:47:27.701Z,13.10
2022-09-18T02:50:03.374Z,13.10
2022-09-18T02:52:38.326Z,13.10
2022-09-18T02:55:12.731Z,13.10
2022-09-18T02:57:46.532Z,13.00
2022-09-18T03:00:18.701Z,13.00
2022-09-18T03:02:47.254Z,13.00
2022-09-18T03:05:15.248Z,13.00
2022-09-18T03:07:43.133Z,13.00
2022-09-18T03:10:12.721Z,13.00
2022-09-18T03:12:40.608Z,13.00
2022-09-18T03:15:09.645Z,13.00
2022-09-18T03:17:38.850Z,13.00
2022-09-18T03:20:07.573Z,13.00
2022-09-18T03:22:35.493Z,13.00
2022-09-18T03:25:03.340Z,13.00
2022-09-18T03:27:31.232Z,13.00
2022-09-18T03:29:59.119Z,13.00
2022-09-18T03:32:26.981Z,13.00
2022-09-18T03:34:57.148Z,13.00
2022-09-18T03:37:25.300Z,13.00
2022-09-18T03:39:53.485Z,13.00
2022-09-18T03:42:21.438Z,13.00
2022-09-18T03:44:49.357Z,13.00
2022-09-18T03:47:17.218Z,13.00
2022-09-18T03:49:47.702Z,13.00
2022-09-18T03:52:17.046Z,13.00
2022-09-18T03:54:45.144Z,13.10
2022-09-18T03:57:13.056Z,13.00
2022-09-18T03:59:40.914Z,13.00
2022-09-18T04:02:08.852Z,13.00
2022-09-18T04:04:36.823Z,13.00
2022-09-18T04:07:04.819Z,13.00
2022-09-18T04:09:34.127Z,13.00
2022-09-18T04:12:02.361Z,13.00
2022-09-18T04:14:30.498Z,13.00
2022-09-18T04:16:58.438Z,13.00
2022-09-18T04:19:26.389Z,13.00
2022-09-18T04:21:54.301Z,13.00
2022-09-18T04:24:22.157Z,13.00
2022-09-18T04:26:51.416Z,13.00
2022-09-18T04:29:19.344Z,13.00
2022-09-18T04:31:47.354Z,13.00
2022-09-18T04:34:19.689Z,13.00
2022-09-18T04:36:47.563Z,13.00
2022-09-18T04:39:15.791Z,13.00
2022-09-18T04:41:45.470Z,13.00
2022-09-18T04:44:14.715Z,13.00
2022-09-18T04:46:42.613Z,13.00
2022-09-18T04:49:10.766Z,13.00
2022-09-18T04:51:38.677Z,13.00
2022-09-18T04:54:06.624Z,13.00
2022-09-18T04:56:34.472Z,13.10
2022-09-18T04:59:02.917Z,13.10
2022-09-18T05:01:32.209Z,13.10
2022-09-18T05:04:00.093Z,13.10
2022-09-18T05:06:28.029Z,13.10
2022-09-18T05:08:55.971Z,13.10
2022-09-18T05:11:24.072Z,13.10
2022-09-18T05:13:56.525Z,13.10
2022-09-18T05:16:24.810Z,13.10
2022-09-18T05:18:54.356Z,13.10
2022-09-18T05:21:22.390Z,13.10
2022-09-18T05:23:50.403Z,13.10
2022-09-18T05:26:18.269Z,13.10
2022-09-18T05:28:49.401Z,13.10
2022-09-18T05:31:17.599Z,13.10
2022-09-18T05:33:45.508Z,13.10
2022-09-18T05:36:14.864Z,13.10
2022-09-18T05:38:42.709Z,13.10
2022-09-18T05:41:10.725Z,13.10
2022-09-18T05:43:38.630Z,13.00
2022-09-18T05:46:07.038Z,13.00
2022-09-18T05:48:34.922Z,13.10
2022-09-18T05:51:02.786Z,13.10
2022-09-18T05:53:32.094Z,13.10
2022-09-18T05:56:00.877Z,13.10
2022-09-18T05:58:28.788Z,13.10
2022-09-18T06:00:59.234Z,13.10
2022-09-18T06:03:27.243Z,13.10
2022-09-18T06:05:55.999Z,13.10
2022-09-18T06:08:24.296Z,13.10
2022-09-18T06:10:54.701Z,13.10
2022-09-18T06:13:22.811Z,13.10
2022-09-18T06:15:52.823Z,13.10
2022-09-18T06:18:21.031Z,13.10
2022-09-18T06:20:54.296Z,13.20
2022-09-18T06:23:23.222Z,13.20
2022-09-18T06:25:59.678Z,13.20
2022-09-18T06:28:28.080Z,13.20
2022-09-18T06:30:56.080Z,13.20
2022-09-18T06:33:24.029Z,13.20
2022-09-18T06:35:51.945Z,13.20
2022-09-18T06:38:19.861Z,13.30
2022-09-18T06:40:51.710Z,13.30
2022-09-18T06:43:21.660Z,13.30
2022-09-18T06:45:53.455Z,13.30
2022-09-18T06:48:21.722Z,13.30
2022-09-18T06:50:53.462Z,13.30
2022-09-18T06:53:21.875Z,13.30
2022-09-18T06:55:50.372Z,13.40
2022-09-18T06:58:20.959Z,13.40
2022-09-18T07:00:48.925Z,13.40
2022-09-18T07:03:16.858Z,13.40
2022-09-18T07:05:46.022Z,13.40
2022-09-18T07:08:14.319Z,13.40
2022-09-18T07:10:42.270Z,13.50
2022-09-18T07:13:10.589Z,13.50
2022-09-18T07:15:39.902Z,13.50
2022-09-18T07:18:08.085Z,13.50
2022-09-18T07:20:36.012Z,13.60
2022-09-18T07:23:04.348Z,13.60
2022-09-18T07:25:34.412Z,13.60
2022-09-18T07:28:07.791Z,13.60
2022-09-18T07:30:35.836Z,13.70
2022-09-18T07:33:06.115Z,13.70
2022-09-18T07:35:34.414Z,13.70
2022-09-18T07:38:05.869Z,13.70
2022-09-18T07:40:34.399Z,13.80
2022-09-18T07:43:03.749Z,13.80
2022-09-18T07:45:31.645Z,13.80
2022-09-18T07:48:01.943Z,13.80
2022-09-18T07:50:31.264Z,13.80
2022-09-18T07:53:02.185Z,13.80
2022-09-18T07:55:30.045Z,13.80
2022-09-18T07:57:59.621Z,13.90
2022-09-18T08:00:28.623Z,13.90
2022-09-18T08:03:03.324Z,13.90
2022-09-18T08:05:32.721Z,13.90
2022-09-18T08:08:04.336Z,13.90
2022-09-18T08:10:32.675Z,13.90
2022-09-18T08:13:00.620Z,13.90
2022-09-18T08:15:28.492Z,13.90
2022-09-18T08:17:56.575Z,13.90
2022-09-18T08:20:24.475Z,14.00
2022-09-18T08:22:53.782Z,14.00
2022-09-18T08:25:21.846Z,14.00
2022-09-18T08:27:49.713Z,14.00
2022-09-18T08:30:17.853Z,14.00
2022-09-18T08:32:45.736Z,14.00
2022-09-18T08:35:13.689Z,14.00
2022-09-18T08:37:48.491Z,14.00
2022-09-18T08:40:19.714Z,14.10
2022-09-18T08:43:03.442Z,14.10
2022-09-18T08:45:43.185Z,14.10
2022-09-18T08:48:16.519Z,14.10
2022-09-18T08:50:48.214Z,14.10
2022-09-18T08:53:20.822Z,14.20
2022-09-18T08:55:51.928Z,14.20
2022-09-18T08:58:23.916Z,14.20
2022-09-18T09:00:54.423Z,14.30
2022-09-18T09:03:30.068Z,14.30
2022-09-18T09:06:00.052Z,14.30
2022-09-18T09:08:46.967Z,14.30
2022-09-18T09:11:23.118Z,14.40
2022-09-18T09:14:03.227Z,14.40
2022-09-18T09:16:42.617Z,14.50
2022-09-18T09:19:27.035Z,14.50
2022-09-18T09:22:03.627Z,14.60
2022-09-18T09:24:35.599Z,14.60
2022-09-18T09:27:15.696Z,14.60
2022-09-18T09:29:46.290Z,14.60
2022-09-18T09:32:23.269Z,14.60
2022-09-18T09:34:56.934Z,14.60
2022-09-18T09:37:35.975Z,14.60
2022-09-18T09:40:12.498Z,14.60
2022-09-18T09:42:46.749Z,14.60
2022-09-18T09:45:22.302Z,14.60
2022-09-18T09:47:58.033Z,14.60
2022-09-18T09:50:38.145Z,14.60
2022-09-18T09:53:10.413Z,14.60
2022-09-18T09:55:45.366Z,14.70
2022-09-18T09:58:22.829Z,14.70
2022-09-18T10:01:07.895Z,14.70
2022-09-18T10:03:43.584Z,14.70
2022-09-18T10:06:23.626Z,14.60
2022-09-18T10:08:56.988Z,14.70
2022-09-18T10:11:25.132Z,14.70
2022-09-18T10:13:59.641Z,14.70
2022-09-18T10:16:33.483Z,14.70
2022-09-18T10:19:02.316Z,14.70
2022-09-18T10:21:35.432Z,14.70
2022-09-18T10:24:15.998Z,14.70
2022-09-18T10:26:48.154Z,14.80
2022-09-18T10:29:18.900Z,14.80
2022-09-18T10:31:49.599Z,14.80
2022-09-18T10:34:36.151Z,14.80
2022-09-18T10:37:05.867Z,14.80
2022-09-18T10:39:36.402Z,14.80
2022-09-18T10:42:06.667Z,14.80
2022-09-18T10:44:38.306Z,14.80
2022-09-18T10:47:09.171Z,14.80
2022-09-18T10:49:40.807Z,14.80
2022-09-18T10:52:31.896Z,14.90
2022-09-18T10:55:02.143Z,14.90
2022-09-18T10:57:32.060Z,14.80
2022-09-18T11:00:03.774Z,14.80
2022-09-18T11:02:38.966Z,14.90
2022-09-18T11:05:15.730Z,14.80
2022-09-18T11:07:49.649Z,14.80
2022-09-18T11:10:18.669Z,14.90
2022-09-18T11:12:54.881Z,14.90
2022-09-18T11:15:26.794Z,14.90
2022-09-18T11:17:57.383Z,14.90
2022-09-18T11:20:28.700Z,14.90
2022-09-18T11:23:16.204Z,14.90
2022-09-18T11:25:45.739Z,14.90
2022-09-18T11:28:23.956Z,14.90
2022-09-18T11:31:01.822Z,15.00
2022-09-18T11:33:33.082Z,15.00
2022-09-18T11:36:05.646Z,15.00
2022-09-18T11:38:40.003Z,15.00
2022-09-18T11:41:09.751Z,15.00
2022-09-18T11:43:39.533Z,15.00
2022-09-18T11:46:19.382Z,15.00
2022-09-18T11:48:51.091Z,15.00
2022-09-18T11:51:26.666Z,15.00
2022-09-18T11:54:02.605Z,15.10
2022-09-18T11:56:37.131Z,15.10
2022-09-18T11:59:11.900Z,15.10
2022-09-18T12:01:44.639Z,15.10
2022-09-18T12:04:17.436Z,15.10
2022-09-18T12:06:53.495Z,15.10
2022-09-18T12:09:28.594Z,15.10
2022-09-18T12:12:03.762Z,15.10
2022-09-18T12:14:37.592Z,15.20
2022-09-18T12:17:16.516Z,15.20
2022-09-18T12:19:49.334Z,15.20
2022-09-18T12:22:21.668Z,15.20
2022-09-18T12:24:50.393Z,15.20
2022-09-18T12:27:28.436Z,15.30
2022-09-18T12:30:07.249Z,15.30
2022-09-18T12:32:52.272Z,15.30
2022-09-18T12:35:30.070Z,15.30
2022-09-18T12:38:09.835Z,15.40
2022-09-18T12:40:48.032Z,15.30
2022-09-18T12:43:31.869Z,15.40
2022-09-18T12:46:15.991Z,15.40
2022-09-18T12:48:56.302Z,15.40
2022-09-18T12:51:39.939Z,15.40
2022-09-18T12:54:28.023Z,15.40
2022-09-18T12:57:12.665Z,15.40
2022-09-18T12:59:52.365Z,15.30
2022-09-18T13:02:29.124Z,15.30
2022-09-18T13:05:04.622Z,15.30
2022-09-18T13:07:36.961Z,15.20
2022-09-18T13:10:12.160Z,15.20
2022-09-18T13:12:48.108Z,15.20
2022-09-18T13:15:21.068Z,15.10
2022-09-18T13:17:53.429Z,15.10
2022-09-18T13:20:26.737Z,15.10
2022-09-18T13:22:55.547Z,15.10
2022-09-18T13:25:28.282Z,15.10
2022-09-18T13:27:57.581Z,15.00
2022-09-18T13:30:28.940Z,15.00
2022-09-18T13:32:58.221Z,15.00
2022-09-18T13:35:30.785Z,15.00
2022-09-18T13:38:07.288Z,15.00
2022-09-18T13:40:37.725Z,15.00
2022-09-18T13:43:40.223Z,15.00
2022-09-18T13:46:10.394Z,15.00
2022-09-18T13:48:45.829Z,15.00
2022-09-18T13:51:25.412Z,15.00
2022-09-18T13:54:16.640Z,15.00
2022-09-18T13:57:22.149Z,15.00
2022-09-18T13:59:55.598Z,14.90
2022-09-18T14:02:45.930Z,14.90
2022-09-18T14:05:30.245Z,14.90
2022-09-18T14:08:40.680Z,14.90
2022-09-18T14:11:17.753Z,14.90
2022-09-18T14:13:53.953Z,14.90
2022-09-18T14:16:29.204Z,14.80
2022-09-18T14:19:01.449Z,14.90
2022-09-18T14:21:31.825Z,14.80
2022-09-18T14:24:37.663Z,14.80
2022-09-18T14:27:40.280Z,14.80
2022-09-18T14:30:20.883Z,14.90
2022-09-18T14:33:12.773Z,14.90
2022-09-18T14:35:53.204Z,14.80
2022-09-18T14:38:33.226Z,14.80
2022-09-18T14:41:10.232Z,14.80
2022-09-18T14:43:40.161Z,14.80
2022-09-18T14:46:17.783Z,14.80
2022-09-18T14:48:45.677Z,14.80
2022-09-18T14:51:19.884Z,14.70
2022-09-18T14:53:50.949Z,14.70
2022-09-18T14:56:25.200Z,14.70
2022-09-18T14:58:53.513Z,14.70
2022-09-18T15:01:26.268Z,14.60
2022-09-18T15:03:56.095Z,14.60
2022-09-18T15:06:29.459Z,14.60
2022-09-18T15:08:58.386Z,14.60
2022-09-18T15:11:41.683Z,14.60
2022-09-18T15:14:22.389Z,14.60
2022-09-18T15:16:57.076Z,14.60
2022-09-18T15:19:25.000Z,14.50
2022-09-18T15:21:54.224Z,14.50
2022-09-18T15:24:22.326Z,14.50
2022-09-18T15:26:56.277Z,14.50
2022-09-18T15:29:27.396Z,14.50
2022-09-18T15:31:56.304Z,14.50
2022-09-18T15:34:27.540Z,14.40
2022-09-18T15:36:57.556Z,14.40
2022-09-18T15:39:32.067Z,14.40
2022-09-18T15:42:19.494Z,14.40
2022-09-18T15:45:29.090Z,14.40
2022-09-18T15:47:58.790Z,14.30
2022-09-18T15:50:44.684Z,14.30
2022-09-18T15:53:25.680Z,14.30
2022-09-18T15:56:00.202Z,14.30
2022-09-18T15:58:43.796Z,14.30
2022-09-18T16:01:24.675Z,14.20
2022-09-18T16:04:22.152Z,14.20
2022-09-18T16:07:00.390Z,14.20
2022-09-18T16:09:36.952Z,14.20
2022-09-18T16:12:27.157Z,14.10
2022-09-18T16:15:14.265Z,14.10
2022-09-18T16:17:58.954Z,14.10
2022-09-18T16:20:38.957Z,14.10
2022-09-18T16:23:20.707Z,14.10
2022-09-18T16:26:03.280Z,14.10
2022-09-18T16:28:33.989Z,14.00
2022-09-18T16:31:03.483Z,14.00
2022-09-18T16:33:33.410Z,13.90
2022-09-18T16:36:04.181Z,14.00
2022-09-18T16:38:33.085Z,13.90
2022-09-18T16:41:01.227Z,13.90
2022-09-18T16:43:29.929Z,13.90
2022-09-18T16:45:57.822Z,13.90
2022-09-18T16:48:27.063Z,13.90
2022-09-18T16:50:54.921Z,13.80
2022-09-18T16:53:22.780Z,13.80
2022-09-18T16:55:53.510Z,13.80
2022-09-18T16:58:22.543Z,13.80
2022-09-18T17:00:50.747Z,13.80
2022-09-18T17:03:19.240Z,13.70
2022-09-18T17:05:48.568Z,13.70
2022-09-18T17:08:16.636Z,13.70
2022-09-18T17:10:45.393Z,13.60
2022-09-18T17:13:13.873Z,13.60
2022-09-18T17:15:41.808Z,13.60
2022-09-18T17:18:09.651Z,13.60
2022-09-18T17:20:37.999Z,13.60
2022-09-18T17:23:07.973Z,13.50
2022-09-18T17:25:36.862Z,13.50
2022-09-18T17:28:04.887Z,13.50
2022-09-18T17:30:32.798Z,13.50
2022-09-18T17:33:00.718Z,13.50
2022-09-18T17:35:28.629Z,13.40
2022-09-18T17:37:56.545Z,13.40
2022-09-18T17:40:25.842Z,13.40
2022-09-18T17:42:53.873Z,13.30
2022-09-18T17:45:21.788Z,13.30
2022-09-18T17:47:52.767Z,13.30
2022-09-18T17:50:21.954Z,13.20
2022-09-18T17:52:49.842Z,13.20
2022-09-18T17:55:18.018Z,13.20
2022-09-18T17:57:47.369Z,13.10
2022-09-18T18:00:15.667Z,13.10
2022-09-18T18:02:43.518Z,13.10
2022-09-18T18:05:11.368Z,13.10
2022-09-18T18:07:39.303Z,13.00
2022-09-18T18:10:07.965Z,13.00
2022-09-18T18:12:36.627Z,12.90
2022-09-18T18:15:06.662Z,12.90
2022-09-18T18:17:35.844Z,12.90
2022-09-18T18:20:06.322Z,12.80
2022-09-18T18:22:34.233Z,12.80
2022-09-18T18:25:02.414Z,12.80
2022-09-18T18:27:30.247Z,12.80
2022-09-18T18:29:59.052Z,12.70
2022-09-18T18:32:28.293Z,12.70
2022-09-18T18:34:56.473Z,12.60
2022-09-18T18:37:24.417Z,12.60
2022-09-18T18:39:52.614Z,12.60
2022-09-18T18:42:20.632Z,12.60
2022-09-18T18:44:48.527Z,12.60
2022-09-18T18:47:17.580Z,12.50
2022-09-18T18:49:46.915Z,12.50
2022-09-18T18:52:15.204Z,12.50
2022-09-18T18:54:43.147Z,12.50
2022-09-18T18:57:11.620Z,12.40
2022-09-18T18:59:40.113Z,12.40
2022-09-18T19:02:10.482Z,12.40
2022-09-18T19:04:40.279Z,12.40
2022-09-18T19:07:10.771Z,12.40
2022-09-18T19:09:40.749Z,12.40
2022-09-18T19:12:08.828Z,12.30
2022-09-18T19:14:37.993Z,12.30
2022-09-18T19:17:06.147Z,12.20
2022-09-18T19:19:34.009Z,12.20
2022-09-18T19:22:01.959Z,12.20
2022-09-18T19:24:31.409Z,12.20
2022-09-18T19:26:59.456Z,12.20
2022-09-18T19:29:28.308Z,12.20
2022-09-18T19:31:57.522Z,12.20
2022-09-18T19:34:25.559Z,12.20
2022-09-18T19:36:53.721Z,12.10
2022-09-18T19:39:24.485Z,12.10
2022-09-18T19:41:59.175Z,12.10
2022-09-18T19:44:31.662Z,12.10
2022-09-18T19:47:03.069Z,12.10
2022-09-18T19:49:37.129Z,12.10
2022-09-18T19:52:07.717Z,12.00
2022-09-18T19:54:35.585Z,12.00
2022-09-18T19:57:04.968Z,12.00
2022-09-18T19:59:32.876Z,12.00
2022-09-18T20:02:00.789Z,12.00
2022-09-18T20:04:29.373Z,12.00
2022-09-18T20:06:57.291Z,12.00
2022-09-18T20:09:28.578Z,12.00
2022-09-18T20:11:57.217Z,12.00
2022-09-18T20:14:26.575Z,12.00
2022-09-18T20:16:54.972Z,11.90
2022-09-18T20:19:24.247Z,11.90
2022-09-18T20:21:52.964Z,11.90
2022-09-18T20:24:21.288Z,11.90
2022-09-18T20:26:49.543Z,11.90
2022-09-18T20:29:17.391Z,11.90
2022-09-18T20:31:47.312Z,11.80
2022-09-18T20:34:15.473Z,11.80
2022-09-18T20:36:43.553Z,11.80
2022-09-18T20:39:11.464Z,11.80
2022-09-18T20:41:40.570Z,11.80
2022-09-18T20:44:08.639Z,11.80
2022-09-18T20:46:37.702Z,11.80
2022-09-18T20:49:07.789Z,11.70
2022-09-18T20:51:36.234Z,11.70
2022-09-18T20:54:06.900Z,11.70
2022-09-18T20:56:36.532Z,11.70
2022-09-18T20:59:05.386Z,11.70
2022-09-18T21:01:37.728Z,11.70
2022-09-18T21:04:08.948Z,11.60
2022-09-18T21:06:37.421Z,11.60
2022-09-18T21:09:08.255Z,11.60
2022-09-18T21:11:38.636Z,11.60
2022-09-18T21:14:08.686Z,11.60
2022-09-18T21:16:40.572Z,11.60
2022-09-18T21:19:11.789Z,11.60
2022-09-18T21:21:40.484Z,11.60
2022-09-18T21:24:09.515Z,11.60
2022-09-18T21:26:39.386Z,11.60
2022-09-18T21:29:11.354Z,11.60
2022-09-18T21:31:42.507Z,11.60
2022-09-18T21:34:13.730Z,11.60
2022-09-18T21:36:44.977Z,11.50
2022-09-18T21:39:14.284Z,11.50
2022-09-18T21:41:46.256Z,11.50
2022-09-18T21:44:15.929Z,11.50
2022-09-18T21:46:44.051Z,11.50
2022-09-18T21:49:15.999Z,11.50
2022-09-18T21:51:44.263Z,11.50
2022-09-18T21:54:15.753Z,11.50
2022-09-18T21:56:44.574Z,11.50
2022-09-18T21:59:13.120Z,11.40
2022-09-18T22:01:42.704Z,11.40
2022-09-18T22:04:12.419Z,11.40
2022-09-18T22:06:43.852Z,11.40
2022-09-18T22:09:13.889Z,11.40
2022-09-18T22:11:42.804Z,11.40
2022-09-18T22:14:12.577Z,11.40
2022-09-18T22:16:41.079Z,11.40
2022-09-18T22:19:09.209Z,11.40
2022-09-18T22:21:39.395Z,11.30
2022-09-18T22:24:11.841Z,11.30
2022-09-18T22:26:41.754Z,11.30
2022-09-18T22:29:15.776Z,11.30
2022-09-18T22:31:46.374Z,11.30
2022-09-18T22:34:16.032Z,11.30
2022-09-18T22:36:43.944Z,11.30
2022-09-18T22:39:14.404Z,11.30
2022-09-18T22:41:42.823Z,11.30
2022-09-18T22:44:11.744Z,11.30
2022-09-18T22:46:42.075Z,11.30
2022-09-18T22:49:10.491Z,11.30
2022-09-18T22:51:40.078Z,11.30
2022-09-18T22:54:08.651Z,11.30
2022-09-18T22:56:40.688Z,11.30
2022-09-18T22:59:09.256Z,11.30
2022-09-18T23:01:41.576Z,11.20
2022-09-18T23:04:10.345Z,11.20
2022-09-18T23:06:38.235Z,11.20
2022-09-18T23:09:07.453Z,11.20
2022-09-18T23:11:36.110Z,11.20
2022-09-18T23:14:07.076Z,11.20
2022-09-18T23:16:36.930Z,11.20
2022-09-18T23:19:06.833Z,11.20
2022-09-18T23:21:36.329Z,11.20
2022-09-18T23:24:09.122Z,11.20
2022-09-18T23:26:39.762Z,11.20
2022-09-18T23:29:10.882Z,11.20
2022-09-18T23:31:40.917Z,11.10
2022-09-18T23:34:11.656Z,11.10
2022-09-18T23:36:41.730Z,11.10
2022-09-18T23:39:13.213Z,11.10
2022-09-18T23:41:41.781Z,11.00
2022-09-18T23:44:13.095Z,11.00
2022-09-18T23:46:41.927Z,11.00
2022-09-18T23:49:12.262Z,11.00
2022-09-18T23:51:43.019Z,11.00
2022-09-18T23:54:16.627Z,11.00
2022-09-18T23:56:45.161Z,11.00
2022-09-18T23:59:19.589Z,11.00
